Time,TemperatureF,DewpointF,PressureIn,WindDirection,WindDirectionDegrees,WindSpeedMPH,WindSpeedGustMPH,Humidity,HourlyPrecipIn,Conditions,Clouds,dailyrainin,SolarRadiationWatts/m^2,SoftwareType,DateUTC
2017-06-26 00:01:00,68.9,55.3,29.97,WNW,292,2.3,2.3,62,0.00,CLR,,0.00,0.0,WeatherDisplay:10.37,2017-06-25 22:01:00,
2017-06-26 00:06:00,68.9,55.8,29.97,NNW,338,1.2,0.0,63,0.00,CLR,,0.00,0.0,WeatherDisplay:10.37,2017-06-25 22:06:00,
2017-06-26 00:11:00,68.7,55.6,29.97,NW,315,2.9,2.9,63,0.00,CLR,,0.00,0.0,WeatherDisplay:10.37,2017-06-25 22:11:00,
2017-06-26 00:16:00,68.5,55.4,29.97,NW,315,3.5,3.5,63,0.00,CLR,,0.00,0.0,WeatherDisplay:10.37,2017-06-25 22:16:00,
2017-06-26 00:21:00,68.4,55.3,29.97,NNW,338,3.1,3.1,63,0.00,CLR,,0.00,0.0,WeatherDisplay:10.37,2017-06-25 22:21:00,
2017-06-26 00:26:00,68.4,55.3,29.97,WNW,292,5.8,5.8,63,0.00,CLR,,0.00,0.0,WeatherDisplay:10.37,2017-06-25 22:26:00,
2017-06-26 00:31:00,68.2,55.5,29.97,WNW,292,4.0,4.0,64,0.00,CLR,,0.00,0.0,WeatherDisplay:10.37,2017-06-25 22:31:00,
2017-06-26 00:36:00,68.0,55.4,29.97,NW,315,5.8,5.8,64,0.00,CLR,,0.00,0.0,WeatherDisplay:10.37,2017-06-25 22:36:00,
2017-06-26 00:41:00,68.0,55.4,29.97,WNW,292,5.8,5.8,64,0.00,CLR,,0.00,0.0,WeatherDisplay:10.37,2017-06-25 22:41:00,
2017-06-26 00:46:00,67.8,55.6,29.97,WNW,292,4.6,4.6,65,0.00,CLR,,0.00,0.0,WeatherDisplay:10.37,2017-06-25 22:46:00,
2017-06-26 00:51:00,67.8,55.6,29.97,WNW,292,5.8,5.8,65,0.00,CLR,,0.00,0.0,WeatherDisplay:10.37,2017-06-25 22:51:00,
2017-06-26 00:56:00,67.6,55.5,29.97,WNW,292,5.8,5.8,65,0.00,CLR,,0.00,0.0,WeatherDisplay:10.37,2017-06-25 22:56:00,
2017-06-26 01:01:00,67.6,55.9,29.97,WNW,292,3.5,3.5,66,0.00,CLR,,0.00,0.0,WeatherDisplay:10.37,2017-06-25 23:01:00,
2017-06-26 01:06:00,67.5,55.7,29.97,NW,315,3.5,3.5,66,0.00,CLR,,0.00,0.0,WeatherDisplay:10.37,2017-06-25 23:06:00,
2017-06-26 01:11:00,67.5,55.7,29.97,WNW,292,2.3,2.3,66,0.00,CLR,,0.00,0.0,WeatherDisplay:10.37,2017-06-25 23:11:00,
2017-06-26 01:16:00,67.3,55.5,29.94,WNW,292,4.0,4.0,66,0.00,CLR,,0.00,0.0,WeatherDisplay:10.37,2017-06-25 23:16:00,
2017-06-26 01:21:00,67.1,55.4,29.94,NW,315,3.5,3.5,66,0.00,CLR,,0.00,0.0,WeatherDisplay:10.37,2017-06-25 23:21:00,
2017-06-26 01:26:00,67.1,55.8,29.94,WNW,292,3.5,3.5,67,0.00,CLR,,0.00,0.0,WeatherDisplay:10.37,2017-06-25 23:26:00,
2017-06-26 01:31:00,66.9,55.6,30.00,NW,315,3.5,3.5,67,0.00,CLR,,0.00,0.0,WeatherDisplay:10.37,2017-06-25 23:31:00,
2017-06-26 01:36:00,66.9,55.6,30.00,WNW,292,2.3,2.3,67,0.00,CLR,,0.00,0.0,WeatherDisplay:10.37,2017-06-25 23:36:00,
2017-06-26 01:41:00,66.7,55.4,30.00,West,270,3.5,3.5,67,0.00,CLR,,0.00,0.0,WeatherDisplay:10.37,2017-06-25 23:41:00,
2017-06-26 01:46:00,66.7,55.4,29.97,West,270,2.4,2.4,67,0.00,CLR,,0.00,0.0,WeatherDisplay:10.37,2017-06-25 23:46:00,
2017-06-26 01:51:00,66.6,55.3,29.97,WNW,292,3.5,3.5,67,0.00,CLR,,0.00,0.0,WeatherDisplay:10.37,2017-06-25 23:51:00,
2017-06-26 01:56:00,66.6,55.7,29.97,WSW,248,1.2,0.0,68,0.00,CLR,,0.00,0.0,WeatherDisplay:10.37,2017-06-25 23:56:00,
2017-06-26 02:01:00,66.4,55.5,29.97,NW,315,1.2,0.0,68,0.00,CLR,,0.00,0.0,WeatherDisplay:10.37,2017-06-26 00:01:00,
2017-06-26 02:06:00,66.4,55.5,29.97,WNW,292,3.5,3.5,68,0.00,CLR,,0.00,0.0,WeatherDisplay:10.37,2017-06-26 00:06:00,
2017-06-26 02:11:00,66.2,55.3,29.97,West,270,2.3,2.3,68,0.00,CLR,,0.00,0.0,WeatherDisplay:10.37,2017-06-26 00:11:00,
2017-06-26 02:16:00,66.2,55.3,29.94,WNW,292,2.6,2.6,68,0.00,CLR,,0.00,0.0,WeatherDisplay:10.37,2017-06-26 00:16:00,
2017-06-26 02:21:00,66.0,56.0,29.94,WNW,292,2.6,2.6,70,0.00,CLR,,0.00,0.0,WeatherDisplay:10.37,2017-06-26 00:21:00,
2017-06-26 02:26:00,66.0,56.0,29.94,WNW,292,1.2,1.2,70,0.00,CLR,,0.00,0.0,WeatherDisplay:10.37,2017-06-26 00:26:00,
2017-06-26 02:31:00,65.8,55.8,29.94,West,270,2.3,2.3,70,0.00,CLR,,0.00,0.0,WeatherDisplay:10.37,2017-06-26 00:31:00,
2017-06-26 02:36:00,65.8,55.8,29.94,West,270,0.0,0.0,70,0.00,CLR,,0.00,0.0,WeatherDisplay:10.37,2017-06-26 00:36:00,
2017-06-26 02:41:00,65.7,55.6,29.94,NW,315,4.3,4.3,70,0.00,CLR,,0.00,0.0,WeatherDisplay:10.37,2017-06-26 00:41:00,
2017-06-26 02:46:00,65.5,55.8,29.94,WNW,292,5.8,5.8,71,0.00,CLR,,0.00,0.0,WeatherDisplay:10.37,2017-06-26 00:46:00,
2017-06-26 02:51:00,65.5,55.8,29.94,West,270,5.8,5.8,71,0.00,CLR,,0.00,0.0,WeatherDisplay:10.37,2017-06-26 00:51:00,
2017-06-26 02:56:00,65.3,55.7,29.94,West,270,4.6,4.6,71,0.00,CLR,,0.00,0.0,WeatherDisplay:10.37,2017-06-26 00:56:00,
2017-06-26 03:01:00,65.3,55.7,29.97,NNW,338,4.6,4.6,71,0.00,CLR,,0.00,0.0,WeatherDisplay:10.37,2017-06-26 01:01:00,
2017-06-26 03:06:00,65.1,55.5,29.97,NNE,22,5.8,5.8,71,0.00,CLR,,0.00,0.0,WeatherDisplay:10.37,2017-06-26 01:06:00,
2017-06-26 03:11:00,64.9,55.3,29.97,NW,315,4.6,4.6,71,0.00,CLR,,0.00,0.0,WeatherDisplay:10.37,2017-06-26 01:11:00,
2017-06-26 03:16:00,64.9,55.3,29.97,NNW,338,4.9,4.9,71,0.00,CLR,,0.00,0.0,WeatherDisplay:10.37,2017-06-26 01:16:00,
2017-06-26 03:21:00,64.6,55.0,29.97,NW,315,4.6,4.6,71,0.00,CLR,,0.00,0.0,WeatherDisplay:10.37,2017-06-26 01:21:00,
2017-06-26 03:26:00,64.4,55.2,29.97,SSW,202,3.5,3.5,72,0.00,CLR,,0.00,0.0,WeatherDisplay:10.37,2017-06-26 01:26:00,
2017-06-26 03:31:00,64.2,55.0,30.00,WNW,292,5.8,5.8,72,0.00,CLR,,0.00,0.0,WeatherDisplay:10.37,2017-06-26 01:31:00,
2017-06-26 03:36:00,64.0,54.8,30.00,NW,315,5.8,5.8,72,0.00,CLR,,0.00,0.0,WeatherDisplay:10.37,2017-06-26 01:36:00,
2017-06-26 03:41:00,63.7,54.5,30.00,West,270,4.6,4.6,72,0.00,CLR,,0.00,0.0,WeatherDisplay:10.37,2017-06-26 01:41:00,
2017-06-26 03:46:00,63.7,54.5,30.00,NNW,338,2.4,2.4,72,0.00,CLR,,0.00,0.0,WeatherDisplay:10.37,2017-06-26 01:46:00,
2017-06-26 03:51:00,63.5,54.7,30.00,West,270,3.5,3.5,73,0.00,CLR,,0.00,0.0,WeatherDisplay:10.37,2017-06-26 01:51:00,
2017-06-26 03:56:00,63.3,54.5,30.00,NW,315,2.3,2.3,73,0.00,CLR,,0.00,0.0,WeatherDisplay:10.37,2017-06-26 01:56:00,
2017-06-26 04:02:00,63.3,54.5,29.97,WNW,292,4.9,4.9,73,0.00,CLR,,0.00,0.0,WeatherDisplay:10.37,2017-06-26 02:02:00,
2017-06-26 04:07:00,63.1,54.3,29.97,NNW,338,2.4,2.4,73,0.00,CLR,,0.00,0.0,WeatherDisplay:10.37,2017-06-26 02:07:00,
2017-06-26 04:12:00,63.1,54.3,29.97,WNW,292,3.5,3.5,73,0.00,CLR,,0.00,0.0,WeatherDisplay:10.37,2017-06-26 02:12:00,
2017-06-26 04:17:00,63.0,54.2,29.97,NW,315,2.3,2.3,73,0.00,CLR,,0.00,0.0,WeatherDisplay:10.37,2017-06-26 02:17:00,
2017-06-26 04:22:00,62.8,54.4,29.97,WNW,292,3.6,3.6,74,0.00,CLR,,0.00,0.0,WeatherDisplay:10.37,2017-06-26 02:22:00,
2017-06-26 04:27:00,62.8,54.4,29.97,NNE,22,3.5,3.5,74,0.00,CLR,,0.00,0.0,WeatherDisplay:10.37,2017-06-26 02:27:00,
2017-06-26 04:32:00,62.6,54.2,29.97,NNE,22,3.5,3.5,74,0.00,CLR,,0.00,0.0,WeatherDisplay:10.37,2017-06-26 02:32:00,
2017-06-26 04:37:00,62.6,54.2,29.97,NW,315,4.6,4.6,74,0.00,CLR,,0.00,0.0,WeatherDisplay:10.37,2017-06-26 02:37:00,
2017-06-26 04:42:00,62.4,54.4,29.97,NW,315,4.6,4.6,75,0.00,CLR,,0.00,0.0,WeatherDisplay:10.37,2017-06-26 02:42:00,
2017-06-26 04:47:00,62.2,54.2,29.94,NW,315,4.6,4.6,75,0.00,CLR,,0.00,0.0,WeatherDisplay:10.37,2017-06-26 02:47:00,
2017-06-26 04:52:00,62.2,54.6,29.94,WNW,292,5.9,5.9,76,0.00,CLR,,0.00,0.0,WeatherDisplay:10.37,2017-06-26 02:52:00,
2017-06-26 04:57:00,62.2,54.6,29.94,WNW,292,3.5,3.5,76,0.00,CLR,,0.00,0.0,WeatherDisplay:10.37,2017-06-26 02:57:00,
2017-06-26 05:02:00,62.2,54.6,29.94,NNW,338,3.8,3.8,76,0.00,CLR,,0.00,0.0,WeatherDisplay:10.37,2017-06-26 03:02:00,
2017-06-26 05:07:00,62.2,54.6,29.94,NNW,338,4.6,4.6,76,0.00,CLR,,0.00,0.0,WeatherDisplay:10.37,2017-06-26 03:07:00,
2017-06-26 05:12:00,62.2,54.6,29.94,WNW,292,1.2,1.2,76,0.00,CLR,,0.00,0.0,WeatherDisplay:10.37,2017-06-26 03:12:00,
2017-06-26 05:17:00,62.4,54.8,29.94,North,0,3.1,3.1,76,0.00,CLR,,0.00,0.0,WeatherDisplay:10.37,2017-06-26 03:17:00,
2017-06-26 05:22:00,62.4,55.8,29.94,NNE,22,2.3,2.3,79,0.00,CLR,,0.00,0.0,WeatherDisplay:10.37,2017-06-26 03:22:00,
2017-06-26 05:27:00,62.4,55.8,29.94,North,0,5.8,5.8,79,0.00,CLR,,0.00,0.0,WeatherDisplay:10.37,2017-06-26 03:27:00,
2017-06-26 05:32:00,62.4,55.5,29.94,NNW,338,2.3,2.4,78,0.00,CLR,,0.00,0.0,WeatherDisplay:10.37,2017-06-26 03:32:00,
2017-06-26 05:37:00,62.4,54.8,29.94,NNE,22,3.3,3.3,76,0.00,CLR,,0.00,0.0,WeatherDisplay:10.37,2017-06-26 03:37:00,
2017-06-26 05:42:00,62.4,54.8,29.94,NNE,22,4.0,4.0,76,0.00,CLR,,0.00,0.0,WeatherDisplay:10.37,2017-06-26 03:42:00,
2017-06-26 05:47:00,62.6,54.6,29.94,North,0,4.6,4.6,75,0.00,CLR,,0.00,0.0,WeatherDisplay:10.37,2017-06-26 03:47:00,
2017-06-26 05:52:00,62.6,54.6,29.94,NNW,338,3.5,3.5,75,0.00,CLR,,0.00,0.0,WeatherDisplay:10.37,2017-06-26 03:52:00,
2017-06-26 05:57:00,62.4,54.8,29.94,WNW,292,2.6,2.6,76,0.00,CLR,,0.00,0.0,WeatherDisplay:10.37,2017-06-26 03:57:00,
2017-06-26 06:02:00,62.4,54.8,29.94,NE,45,5.8,5.8,76,0.00,CLR,,0.00,0.0,WeatherDisplay:10.37,2017-06-26 04:02:00,
2017-06-26 06:07:00,62.6,54.6,29.94,NNE,22,3.5,3.5,75,0.00,CLR,,0.00,0.0,WeatherDisplay:10.37,2017-06-26 04:07:00,
2017-06-26 06:12:00,62.6,54.6,29.94,North,0,2.9,2.9,75,0.00,CLR,,0.00,0.0,WeatherDisplay:10.37,2017-06-26 04:12:00,
2017-06-26 06:17:00,62.6,54.6,29.94,NNW,338,3.5,3.5,75,0.00,CLR,,0.00,0.0,WeatherDisplay:10.37,2017-06-26 04:17:00,
2017-06-26 06:22:00,62.6,54.6,29.94,NNW,338,4.6,4.6,75,0.00,CLR,,0.00,0.0,WeatherDisplay:10.37,2017-06-26 04:22:00,
2017-06-26 06:27:00,62.6,54.6,29.94,WNW,292,3.8,3.8,75,0.00,CLR,,0.00,0.0,WeatherDisplay:10.37,2017-06-26 04:27:00,
2017-06-26 06:32:00,62.6,54.6,29.94,NNE,22,2.3,2.3,75,0.00,CLR,,0.00,0.0,WeatherDisplay:10.37,2017-06-26 04:32:00,
2017-06-26 06:37:00,62.6,54.6,29.94,NNW,338,3.5,3.5,75,0.00,CLR,,0.00,0.0,WeatherDisplay:10.37,2017-06-26 04:37:00,
2017-06-26 06:42:00,62.6,54.6,29.94,NW,315,0.0,0.0,75,0.00,CLR,,0.00,0.0,WeatherDisplay:10.37,2017-06-26 04:42:00,
2017-06-26 06:47:00,62.8,54.7,29.94,NNW,338,3.5,3.5,75,0.00,CLR,,0.00,0.0,WeatherDisplay:10.37,2017-06-26 04:47:00,
2017-06-26 06:52:00,62.8,54.7,29.94,NW,315,2.3,2.3,75,0.00,CLR,,0.00,0.0,WeatherDisplay:10.37,2017-06-26 04:52:00,
2017-06-26 06:53:00,62.8,54.7,29.94,NW,315,2.9,2.9,75,0.00,CLR,,0.00,0.0,WeatherDisplay:10.37,2017-06-26 04:53:00,
2017-06-26 06:58:00,62.8,54.7,29.94,NW,315,6.0,6.0,75,0.00,CLR,,0.00,0.0,WeatherDisplay:10.37,2017-06-26 04:58:00,
2017-06-26 07:03:00,62.8,54.7,29.94,South,180,3.5,3.5,75,0.00,CLR,,0.00,0.0,WeatherDisplay:10.37,2017-06-26 05:03:00,
2017-06-26 07:08:00,62.8,54.7,29.94,WNW,292,3.5,4.0,75,0.00,CLR,,0.00,0.0,WeatherDisplay:10.37,2017-06-26 05:08:00,
2017-06-26 07:13:00,63.0,54.9,29.94,NW,315,5.8,5.8,75,0.00,CLR,,0.00,0.0,WeatherDisplay:10.37,2017-06-26 05:13:00,
2017-06-26 07:18:00,63.0,54.9,29.94,NNE,22,4.6,4.6,75,0.00,CLR,,0.00,0.0,WeatherDisplay:10.37,2017-06-26 05:18:00,
2017-06-26 07:23:00,63.3,55.3,29.94,WNW,292,3.8,3.8,75,0.00,CLR,,0.00,0.0,WeatherDisplay:10.37,2017-06-26 05:23:00,
2017-06-26 07:28:00,63.5,55.4,29.94,NNW,338,5.8,5.8,75,0.00,CLR,,0.00,0.0,WeatherDisplay:10.37,2017-06-26 05:28:00,
2017-06-26 07:33:00,63.5,55.1,29.94,NNW,338,5.8,5.8,74,0.00,CLR,,0.00,0.0,WeatherDisplay:10.37,2017-06-26 05:33:00,
2017-06-26 07:38:00,63.7,55.2,29.94,NNW,338,5.8,5.8,74,0.00,CLR,,0.00,0.0,WeatherDisplay:10.37,2017-06-26 05:38:00,
2017-06-26 07:43:00,63.9,55.4,29.94,West,270,4.6,4.6,74,0.00,CLR,,0.00,0.0,WeatherDisplay:10.37,2017-06-26 05:43:00,
2017-06-26 07:48:00,64.0,55.6,29.94,North,0,2.9,2.9,74,0.00,CLR,,0.00,0.0,WeatherDisplay:10.37,2017-06-26 05:48:00,
2017-06-26 07:53:00,64.4,55.9,29.94,NNW,338,4.6,4.6,74,0.00,CLR,,0.00,0.0,WeatherDisplay:10.37,2017-06-26 05:53:00,
2017-06-26 07:58:00,64.6,55.7,29.94,NNW,338,4.6,4.6,73,0.00,CLR,,0.00,0.0,WeatherDisplay:10.37,2017-06-26 05:58:00,
2017-06-26 08:03:00,64.8,55.9,29.94,NNE,22,2.3,2.3,73,0.00,CLR,,0.00,0.0,WeatherDisplay:10.37,2017-06-26 06:03:00,
2017-06-26 08:08:00,64.9,56.1,29.94,NE,45,5.8,5.8,73,0.00,CLR,,0.00,0.0,WeatherDisplay:10.37,2017-06-26 06:08:00,
2017-06-26 08:13:00,65.5,56.6,29.94,NW,315,4.6,4.6,73,0.00,CLR,,0.00,0.0,WeatherDisplay:10.37,2017-06-26 06:13:00,
2017-06-26 08:18:00,65.7,56.4,29.91,NNW,338,3.5,3.5,72,0.00,CLR,,0.00,0.0,WeatherDisplay:10.37,2017-06-26 06:18:00,
2017-06-26 08:23:00,65.7,56.4,29.91,NNE,22,4.6,4.6,72,0.00,CLR,,0.00,0.0,WeatherDisplay:10.37,2017-06-26 06:23:00,
2017-06-26 08:28:00,65.8,56.2,29.91,NNE,22,5.8,5.8,71,0.00,CLR,,0.00,0.0,WeatherDisplay:10.37,2017-06-26 06:28:00,
2017-06-26 08:33:00,66.2,56.1,29.91,NNW,338,4.6,4.6,70,0.00,CLR,,0.00,0.0,WeatherDisplay:10.37,2017-06-26 06:33:00,
2017-06-26 08:38:00,66.4,55.9,29.91,WNW,292,5.8,5.8,69,0.00,CLR,,0.00,0.0,WeatherDisplay:10.37,2017-06-26 06:38:00,
2017-06-26 08:43:00,66.6,56.1,29.91,NNW,338,5.8,5.8,69,0.00,CLR,,0.00,0.0,WeatherDisplay:10.37,2017-06-26 06:43:00,
2017-06-26 08:48:00,66.7,56.2,29.94,North,0,4.6,4.6,69,0.00,CLR,,0.00,0.0,WeatherDisplay:10.37,2017-06-26 06:48:00,
2017-06-26 08:53:00,66.7,56.2,29.94,NW,315,3.5,3.5,69,0.00,CLR,,0.00,0.0,WeatherDisplay:10.37,2017-06-26 06:53:00,
2017-06-26 08:58:00,66.7,56.2,29.94,NE,45,2.4,2.4,69,0.00,CLR,,0.00,0.0,WeatherDisplay:10.37,2017-06-26 06:58:00,
2017-06-26 09:03:00,66.7,55.8,29.94,NW,315,4.6,4.6,68,0.00,CLR,,0.00,0.0,WeatherDisplay:10.37,2017-06-26 07:03:00,
2017-06-26 09:08:00,66.6,55.7,29.94,East,90,3.5,3.5,68,0.00,CLR,,0.00,0.0,WeatherDisplay:10.37,2017-06-26 07:08:00,
2017-06-26 09:13:00,66.6,55.7,29.94,SSW,202,1.2,1.2,68,0.00,CLR,,0.00,0.0,WeatherDisplay:10.37,2017-06-26 07:13:00,
2017-06-26 09:18:00,66.7,55.8,29.94,NW,315,3.5,3.5,68,0.00,CLR,,0.00,0.0,WeatherDisplay:10.37,2017-06-26 07:18:00,
2017-06-26 09:23:00,66.7,55.8,29.94,North,0,4.9,4.9,68,0.00,CLR,,0.00,0.0,WeatherDisplay:10.37,2017-06-26 07:23:00,
2017-06-26 09:28:00,67.1,56.2,29.94,NNE,22,2.3,2.3,68,0.00,CLR,,0.00,0.0,WeatherDisplay:10.37,2017-06-26 07:28:00,
2017-06-26 09:33:00,67.6,56.7,29.94,NNE,22,5.8,5.8,68,0.00,CLR,,0.00,0.0,WeatherDisplay:10.37,2017-06-26 07:33:00,
2017-06-26 09:38:00,68.2,56.8,29.94,ENE,68,8.1,8.1,67,0.00,CLR,,0.00,0.0,WeatherDisplay:10.37,2017-06-26 07:38:00,
2017-06-26 09:43:00,68.5,56.7,29.94,NE,45,5.9,5.9,66,0.00,CLR,,0.00,0.0,WeatherDisplay:10.37,2017-06-26 07:43:00,
2017-06-26 09:48:00,69.3,57.4,29.94,NE,45,4.6,4.6,66,0.00,CLR,,0.00,0.0,WeatherDisplay:10.37,2017-06-26 07:48:00,
2017-06-26 09:53:00,69.4,57.2,29.94,NNE,22,4.6,4.6,65,0.00,CLR,,0.00,0.0,WeatherDisplay:10.37,2017-06-26 07:53:00,
2017-06-26 09:58:00,69.6,57.8,29.94,North,0,4.6,4.6,66,0.00,CLR,,0.00,0.0,WeatherDisplay:10.37,2017-06-26 07:58:00,
2017-06-26 10:03:00,69.4,57.2,29.94,NNW,338,5.8,5.8,65,0.00,CLR,,0.00,0.0,WeatherDisplay:10.37,2017-06-26 08:03:00,
2017-06-26 10:08:00,69.6,57.3,29.94,ENE,68,2.3,2.3,65,0.00,CLR,,0.00,0.0,WeatherDisplay:10.37,2017-06-26 08:08:00,
2017-06-26 10:13:00,69.8,57.1,29.94,NW,315,2.6,2.6,64,0.00,CLR,,0.00,0.0,WeatherDisplay:10.37,2017-06-26 08:13:00,
2017-06-26 10:18:00,70.2,57.4,29.94,NNE,22,6.2,6.2,64,0.00,CLR,,0.00,0.0,WeatherDisplay:10.37,2017-06-26 08:18:00,
2017-06-26 10:23:00,70.3,57.6,29.94,NNE,22,5.8,5.8,64,0.00,CLR,,0.00,0.0,WeatherDisplay:10.37,2017-06-26 08:23:00,
2017-06-26 10:28:00,71.1,58.3,29.94,NNE,22,8.1,8.1,64,0.00,CLR,,0.00,0.0,WeatherDisplay:10.37,2017-06-26 08:28:00,
2017-06-26 10:33:00,71.4,58.2,29.94,North,0,5.8,5.8,63,0.00,CLR,,0.00,0.0,WeatherDisplay:10.37,2017-06-26 08:33:00,
2017-06-26 10:38:00,71.8,58.1,29.94,NW,315,7.4,7.4,62,0.00,CLR,,0.00,0.0,WeatherDisplay:10.37,2017-06-26 08:38:00,
2017-06-26 10:43:00,71.8,58.1,29.94,NNE,22,4.0,4.0,62,0.00,CLR,,0.00,0.0,WeatherDisplay:10.37,2017-06-26 08:43:00,
2017-06-26 10:48:00,72.3,60.3,29.94,NNW,338,3.6,3.6,66,0.00,CLR,,0.00,0.0,WeatherDisplay:10.37,2017-06-26 08:48:00,
2017-06-26 10:49:00,72.3,60.3,29.94,NNE,22,4.6,4.6,66,0.00,CLR,,0.00,0.0,WeatherDisplay:10.37,2017-06-26 08:49:00,
2017-06-26 10:54:00,72.5,59.6,29.94,NE,45,6.9,6.9,64,0.00,CLR,,0.00,0.0,WeatherDisplay:10.37,2017-06-26 08:54:00,
2017-06-26 10:59:00,72.9,59.5,29.94,WSW,248,3.5,3.5,63,0.00,CLR,,0.00,0.0,WeatherDisplay:10.37,2017-06-26 08:59:00,
2017-06-26 11:04:00,73.0,58.8,29.94,NNE,22,8.1,8.1,61,0.00,CLR,,0.00,0.0,WeatherDisplay:10.37,2017-06-26 09:04:00,
2017-06-26 11:09:00,73.2,58.5,29.94,SSW,202,3.5,3.5,60,0.00,CLR,,0.00,0.0,WeatherDisplay:10.37,2017-06-26 09:09:00,
2017-06-26 11:14:00,73.9,59.2,29.94,NNW,338,4.6,4.6,60,0.00,CLR,,0.00,0.0,WeatherDisplay:10.37,2017-06-26 09:14:00,
2017-06-26 11:19:00,74.3,59.0,29.91,NE,45,6.9,6.9,59,0.00,CLR,,0.00,0.0,WeatherDisplay:10.37,2017-06-26 09:19:00,
2017-06-26 11:24:00,74.5,58.7,29.91,WNW,292,3.5,3.5,58,0.00,CLR,,0.00,0.0,WeatherDisplay:10.37,2017-06-26 09:24:00,
2017-06-26 11:29:00,74.8,59.1,29.91,ENE,68,5.8,5.8,58,0.00,CLR,,0.00,0.0,WeatherDisplay:10.37,2017-06-26 09:29:00,
2017-06-26 11:34:00,75.4,58.6,29.91,NE,45,4.6,4.6,56,0.00,CLR,,0.00,0.0,WeatherDisplay:10.37,2017-06-26 09:34:00,
2017-06-26 11:39:00,75.6,58.8,29.91,ENE,68,4.6,4.6,56,0.00,CLR,,0.00,0.0,WeatherDisplay:10.37,2017-06-26 09:39:00,
2017-06-26 11:44:00,75.9,58.6,29.91,SE,135,8.1,8.1,55,0.00,CLR,,0.00,0.0,WeatherDisplay:10.37,2017-06-26 09:44:00,
2017-06-26 11:49:00,76.3,58.9,29.91,NNE,22,4.6,4.6,55,0.00,CLR,,0.00,0.0,WeatherDisplay:10.37,2017-06-26 09:49:00,
2017-06-26 11:54:00,75.9,58.6,29.91,South,180,4.6,4.6,55,0.00,CLR,,0.00,0.0,WeatherDisplay:10.37,2017-06-26 09:54:00,
2017-06-26 11:59:00,76.1,58.8,29.91,SSE,158,3.5,3.5,55,0.00,CLR,,0.00,0.0,WeatherDisplay:10.37,2017-06-26 09:59:00,
2017-06-26 12:04:00,76.6,59.8,29.91,NNW,338,5.8,5.8,56,0.00,CLR,,0.00,0.0,WeatherDisplay:10.37,2017-06-26 10:04:00,
2017-06-26 12:09:00,77.2,59.2,29.91,ENE,68,3.5,3.5,54,0.00,CLR,,0.00,0.0,WeatherDisplay:10.37,2017-06-26 10:09:00,
2017-06-26 12:14:00,77.4,59.4,29.91,NE,45,3.1,3.1,54,0.00,CLR,,0.00,0.0,WeatherDisplay:10.37,2017-06-26 10:14:00,
2017-06-26 12:19:00,77.7,59.7,29.91,NNE,22,8.1,8.1,54,0.00,CLR,,0.00,0.0,WeatherDisplay:10.37,2017-06-26 10:19:00,
2017-06-26 12:24:00,77.9,59.4,29.91,NNE,22,6.2,6.2,53,0.00,CLR,,0.00,0.0,WeatherDisplay:10.37,2017-06-26 10:24:00,
2017-06-26 12:29:00,78.1,59.6,29.91,NNE,22,4.6,4.6,53,0.00,CLR,,0.00,0.0,WeatherDisplay:10.37,2017-06-26 10:29:00,
2017-06-26 12:34:00,78.8,60.2,29.91,North,0,4.6,4.6,53,0.00,CLR,,0.00,0.0,WeatherDisplay:10.37,2017-06-26 10:34:00,
2017-06-26 12:39:00,79.0,60.4,29.91,ENE,68,4.6,4.6,53,0.00,CLR,,0.00,0.0,WeatherDisplay:10.37,2017-06-26 10:39:00,
2017-06-26 12:44:00,79.0,59.9,29.91,NE,45,5.8,5.8,52,0.00,CLR,,0.00,0.0,WeatherDisplay:10.37,2017-06-26 10:44:00,
2017-06-26 12:49:00,79.5,60.4,29.91,West,270,8.1,8.1,52,0.00,CLR,,0.00,0.0,WeatherDisplay:10.37,2017-06-26 10:49:00,
2017-06-26 12:54:00,79.3,60.2,29.91,NNW,338,5.8,5.8,52,0.00,CLR,,0.00,0.0,WeatherDisplay:10.37,2017-06-26 10:54:00,
2017-06-26 12:59:00,79.3,60.2,29.88,NE,45,3.8,3.8,52,0.00,CLR,,0.00,0.0,WeatherDisplay:10.37,2017-06-26 10:59:00,
2017-06-26 13:04:00,80.1,60.8,29.88,NNE,22,6.9,6.9,52,0.00,CLR,,0.00,0.0,WeatherDisplay:10.37,2017-06-26 11:04:00,
2017-06-26 13:09:00,80.6,60.8,29.88,ENE,68,6.9,6.9,51,0.00,CLR,,0.00,0.0,WeatherDisplay:10.37,2017-06-26 11:09:00,
2017-06-26 13:14:00,80.8,61.0,29.88,NNW,338,4.6,4.6,51,0.00,CLR,,0.00,0.0,WeatherDisplay:10.37,2017-06-26 11:14:00,